Time;durP1;ratioP1;P1;durP2;ratioP2;P2;SDS_P1;SDS_P2;PMS_P1;PMS_P2;Temp;Humidity;BMP_temperature;BMP_pressure;BME280_temperature;BME280_humidity;BME280_pressure;Samples;Min_cycle;Max_cycle;Signal;HPM_P1;HPM_P2
2022/05/05 00:02:09;;;;;;;9.75;4.95;;;;;;;;;;5033921;28;20543;-62
2022/05/05 00:04:35;;;;;;;10.85;5.05;;;;;;;;;;5033667;28;20084;-62
2022/05/05 00:07:02;;;;;;;9.90;5.25;;;;;;;;;;5034435;28;20037;-62
2022/05/05 00:09:28;;;;;;;9.25;5.85;;;;;;;;;;5034847;28;20037;-62
2022/05/05 00:14:40;;;;;;;10.45;5.28;;;;;;;;;;5034308;28;20037;-62
2022/05/05 00:17:07;;;;;;;11.23;5.75;;;;;;;;;;5032827;28;20041;-62
2022/05/05 00:19:34;;;;;;;14.18;5.70;;;;;;;;;;5034298;28;20515;-62
2022/05/05 00:22:00;;;;;;;7.70;5.15;;;;;;;;;;5033187;28;20116;-62
2022/05/05 00:24:26;;;;;;;9.52;5.65;;;;;;;;;;5034251;28;20048;-62
2022/05/05 00:26:52;;;;;;;12.02;5.57;;;;;;;;;;5021631;28;20041;-62
2022/05/05 00:29:18;;;;;;;11.65;6.03;;;;;;;;;;5033871;28;20037;-62
2022/05/05 00:31:45;;;;;;;11.43;5.45;;;;;;;;;;5034661;28;20034;-62
2022/05/05 00:34:11;;;;;;;12.93;5.47;;;;;;;;;;5032482;28;20044;-62
2022/05/05 00:36:37;;;;;;;10.65;5.07;;;;;;;;;;5034416;28;20045;-62
2022/05/05 00:39:04;;;;;;;10.23;5.70;;;;;;;;;;5032580;28;20449;-62
2022/05/05 00:41:37;;;;;;;9.25;6.15;;;;;;;;;;5033767;28;20041;-62
2022/05/05 00:44:04;;;;;;;10.52;5.45;;;;;;;;;;5032649;28;20042;-62
2022/05/05 00:46:30;;;;;;;10.25;5.57;;;;;;;;;;5033973;28;20091;-62
2022/05/05 00:48:56;;;;;;;11.55;5.55;;;;;;;;;;5032956;28;20033;-62
2022/05/05 00:51:23;;;;;;;13.40;5.68;;;;;;;;;;5033140;28;20079;-62
2022/05/05 00:53:49;;;;;;;14.48;6.28;;;;;;;;;;5034455;28;20124;-62
2022/05/05 00:56:16;;;;;;;11.07;6.07;;;;;;;;;;5032687;28;20115;-62
2022/05/05 00:58:44;;;;;;;11.57;6.57;;;;;;;;;;5033130;28;20052;-62
2022/05/05 01:01:10;;;;;;;12.73;6.43;;;;;;;;;;5033635;28;20294;-62
2022/05/05 01:03:37;;;;;;;10.80;6.15;;;;;;;;;;5032412;28;20089;-62
2022/05/05 01:06:05;;;;;;;13.65;6.60;;;;;;;;;;5033452;28;20052;-62
2022/05/05 01:08:32;;;;;;;11.90;5.75;;;;;;;;;;5033921;28;20061;-62
2022/05/05 01:10:58;;;;;;;11.50;6.30;;;;;;;;;;5032675;28;20511;-62
2022/05/05 01:13:27;;;;;;;11.35;6.45;;;;;;;;;;5033104;28;20123;-62
2022/05/05 01:15:55;;;;;;;11.13;6.47;;;;;;;;;;5032817;28;20045;-62
2022/05/05 01:18:21;;;;;;;15.32;7.43;;;;;;;;;;5031836;28;20049;-62
2022/05/05 01:20:48;;;;;;;14.07;6.75;;;;;;;;;;5033663;28;20120;-62
2022/05/05 01:23:14;;;;;;;12.88;6.97;;;;;;;;;;5032614;28;20041;-62
2022/05/05 01:28:25;;;;;;;11.90;6.47;;;;;;;;;;5032998;28;20056;-62
2022/05/05 01:30:52;;;;;;;13.07;6.70;;;;;;;;;;5032211;28;20570;-62
2022/05/05 01:33:25;;;;;;;12.30;6.35;;;;;;;;;;5031730;28;20041;-62
2022/05/05 01:35:52;;;;;;;12.80;6.82;;;;;;;;;;5032203;28;20411;-62
2022/05/05 01:38:19;;;;;;;11.82;6.57;;;;;;;;;;5014543;28;20048;-62
2022/05/05 01:40:48;;;;;;;12.95;6.35;;;;;;;;;;5032486;28;20507;-62
2022/05/05 01:43:15;;;;;;;11.57;5.50;;;;;;;;;;5028134;28;20048;-62
2022/05/05 01:45:41;;;;;;;13.45;6.53;;;;;;;;;;5030894;28;20034;-62
2022/05/05 01:48:07;;;;;;;13.05;6.75;;;;;;;;;;5029561;28;20034;-62
2022/05/05 01:50:33;;;;;;;9.75;5.80;;;;;;;;;;5030957;28;20040;-62
2022/05/05 01:53:00;;;;;;;8.32;5.47;;;;;;;;;;5032385;28;20065;-62
2022/05/05 01:55:27;;;;;;;13.82;6.22;;;;;;;;;;5032339;28;20587;-62
2022/05/05 01:57:53;;;;;;;12.07;6.85;;;;;;;;;;5030700;28;20411;-62
2022/05/05 02:00:20;;;;;;;14.55;7.50;;;;;;;;;;5031020;28;20507;-62
2022/05/05 02:02:46;;;;;;;11.50;7.03;;;;;;;;;;5027402;28;20503;-62
2022/05/05 02:05:12;;;;;;;14.43;7.10;;;;;;;;;;5029234;28;20052;-62
2022/05/05 02:07:39;;;;;;;10.57;6.45;;;;;;;;;;5030110;28;20120;-62
2022/05/05 02:10:05;;;;;;;12.70;6.60;;;;;;;;;;5029305;28;20038;-62
2022/05/05 02:12:32;;;;;;;10.43;7.18;;;;;;;;;;5028659;28;20040;-62
2022/05/05 02:14:58;;;;;;;11.80;6.97;;;;;;;;;;5014021;28;20503;-62
2022/05/05 02:17:24;;;;;;;13.43;7.22;;;;;;;;;;5028260;28;20072;-62
2022/05/05 02:19:50;;;;;;;11.05;7.40;;;;;;;;;;5028877;28;20035;-62
2022/05/05 02:22:16;;;;;;;13.82;7.60;;;;;;;;;;5029791;28;20496;-62
2022/05/05 02:24:42;;;;;;;13.15;7.20;;;;;;;;;;5031211;28;20033;-62
2022/05/05 02:27:08;;;;;;;13.55;7.88;;;;;;;;;;5028773;28;20037;-62
2022/05/05 02:29:35;;;;;;;13.75;7.50;;;;;;;;;;5028020;28;20502;-62
2022/05/05 02:32:01;;;;;;;14.85;7.45;;;;;;;;;;5011194;28;20164;-62
2022/05/05 02:34:27;;;;;;;11.93;7.25;;;;;;;;;;5032271;28;20118;-62
2022/05/05 02:39:37;;;;;;;11.45;7.35;;;;;;;;;;5039956;22;20041;-62
2022/05/05 02:42:03;;;;;;;14.85;7.40;;;;;;;;;;4993970;28;20034;-62
2022/05/05 02:44:29;;;;;;;11.77;7.40;;;;;;;;;;4993300;28;20428;-62
2022/05/05 02:46:55;;;;;;;11.75;7.72;;;;;;;;;;4969089;28;20046;-63
2022/05/05 02:49:21;;;;;;;13.90;7.47;;;;;;;;;;4970353;28;20192;-63
2022/05/05 02:51:47;;;;;;;13.40;7.85;;;;;;;;;;4985955;28;20046;-63
2022/05/05 02:56:58;;;;;;;16.33;8.32;;;;;;;;;;5003613;28;20041;-62
2022/05/05 02:59:24;;;;;;;10.93;7.05;;;;;;;;;;5008850;28;20037;-62
2022/05/05 03:01:50;;;;;;;16.30;7.80;;;;;;;;;;5007675;28;20377;-63
2022/05/05 03:04:16;;;;;;;17.48;7.70;;;;;;;;;;5010599;28;20038;-63
2022/05/05 03:06:42;;;;;;;12.75;7.25;;;;;;;;;;4991886;28;20129;-62
2022/05/05 03:09:08;;;;;;;13.73;6.68;;;;;;;;;;5008771;28;20111;-63
2022/05/05 03:11:34;;;;;;;12.82;6.93;;;;;;;;;;5007611;28;20084;-63
2022/05/05 03:14:00;;;;;;;13.40;7.45;;;;;;;;;;5007678;28;20038;-63
2022/05/05 03:16:26;;;;;;;11.70;7.03;;;;;;;;;;5013602;28;20048;-63
2022/05/05 03:18:52;;;;;;;13.38;8.20;;;;;;;;;;5031172;28;20479;-63
2022/05/05 03:21:18;;;;;;;13.40;8.45;;;;;;;;;;5012179;28;20037;-63
2022/05/05 03:23:44;;;;;;;12.27;8.05;;;;;;;;;;4990595;28;20046;-63
2022/05/05 03:26:10;;;;;;;10.60;7.65;;;;;;;;;;5009362;28;20113;-63
2022/05/05 03:28:36;;;;;;;12.68;7.80;;;;;;;;;;5003116;28;20113;-63
2022/05/05 03:31:02;;;;;;;13.50;8.52;;;;;;;;;;5006421;28;20513;-62
2022/05/05 03:33:29;;;;;;;12.57;7.75;;;;;;;;;;4999988;28;20128;-63
2022/05/05 03:35:55;;;;;;;14.77;7.50;;;;;;;;;;5003116;28;20088;-63
2022/05/05 03:38:21;;;;;;;17.13;8.05;;;;;;;;;;4984040;28;20084;-63
2022/05/05 03:40:47;;;;;;;11.90;8.40;;;;;;;;;;4992243;28;20518;-63
2022/05/05 03:43:13;;;;;;;11.82;7.72;;;;;;;;;;5005902;28;20065;-63
2022/05/05 03:45:39;;;;;;;12.75;8.18;;;;;;;;;;4993854;28;20488;-63
2022/05/05 03:48:05;;;;;;;11.27;7.65;;;;;;;;;;5000195;28;20034;-63
2022/05/05 03:50:31;;;;;;;14.00;8.20;;;;;;;;;;4985640;28;20038;-63
2022/05/05 03:52:57;;;;;;;14.10;7.80;;;;;;;;;;5004212;28;20044;-63
2022/05/05 03:55:23;;;;;;;15.93;7.25;;;;;;;;;;4982198;28;20053;-63
2022/05/05 03:57:49;;;;;;;14.10;8.10;;;;;;;;;;4996781;28;20116;-62
2022/05/05 04:00:20;;;;;;;19.88;8.82;;;;;;;;;;5006058;28;20042;-62
2022/05/05 04:03:30;;;;;;;11.20;7.72;;;;;;;;;;5005274;28;20124;-63
2022/05/05 04:05:35;;;;;;;16.38;9.10;;;;;;;;;;4994253;28;20034;-63
2022/05/05 04:08:02;;;;;;;15.88;9.48;;;;;;;;;;4997105;28;20200;-63
2022/05/05 04:10:28;;;;;;;15.80;8.65;;;;;;;;;;5007278;28;20034;-63
2022/05/05 04:12:55;;;;;;;17.50;9.15;;;;;;;;;;5001965;28;20487;-63
2022/05/05 04:15:21;;;;;;;24.48;10.10;;;;;;;;;;5003024;28;20128;-63
2022/05/05 04:17:47;;;;;;;15.52;9.23;;;;;;;;;;5007521;28;20037;-63
2022/05/05 04:20:13;;;;;;;18.15;9.07;;;;;;;;;;5003015;28;20038;-63
2022/05/05 04:22:39;;;;;;;16.58;9.25;;;;;;;;;;4991305;28;20060;-63
2022/05/05 04:25:05;;;;;;;15.57;9.10;;;;;;;;;;5007730;28;20112;-63
2022/05/05 04:27:32;;;;;;;13.77;8.95;;;;;;;;;;5005832;28;20543;-63
2022/05/05 04:29:58;;;;;;;13.88;8.25;;;;;;;;;;5000432;28;20034;-63
2022/05/05 04:32:24;;;;;;;14.90;9.27;;;;;;;;;;5001119;28;20070;-62
2022/05/05 04:34:50;;;;;;;16.58;9.43;;;;;;;;;;5002177;28;20459;-62
2022/05/05 04:37:16;;;;;;;21.33;9.40;;;;;;;;;;5002156;28;20038;-62
2022/05/05 04:39:42;;;;;;;13.90;9.93;;;;;;;;;;5004585;28;20420;-62
2022/05/05 04:42:08;;;;;;;15.57;10.45;;;;;;;;;;5008044;28;20072;-62
2022/05/05 04:44:34;;;;;;;15.88;10.38;;;;;;;;;;5003334;28;20560;-62
2022/05/05 04:47:01;;;;;;;17.05;9.93;;;;;;;;;;5004321;28;20120;-62
2022/05/05 04:49:27;;;;;;;14.77;10.25;;;;;;;;;;4995356;28;20068;-62
2022/05/05 04:51:53;;;;;;;15.45;10.43;;;;;;;;;;5004998;28;20038;-62
2022/05/05 04:54:19;;;;;;;15.25;9.70;;;;;;;;;;5003846;28;20109;-62
2022/05/05 04:56:45;;;;;;;17.63;10.63;;;;;;;;;;5008461;28;20435;-62
2022/05/05 04:59:12;;;;;;;18.30;10.77;;;;;;;;;;5006336;28;20121;-62
2022/05/05 05:01:38;;;;;;;16.15;10.13;;;;;;;;;;5006092;28;20113;-63
2022/05/05 05:04:04;;;;;;;22.75;11.35;;;;;;;;;;4990866;28;20454;-62
2022/05/05 05:06:30;;;;;;;18.13;10.38;;;;;;;;;;5009264;28;20040;-62
2022/05/05 05:08:56;;;;;;;19.92;11.15;;;;;;;;;;5009057;28;20492;-62
2022/05/05 05:11:23;;;;;;;16.25;10.57;;;;;;;;;;5010793;28;20038;-62
2022/05/05 05:13:49;;;;;;;19.15;11.02;;;;;;;;;;4989537;28;20553;-62
2022/05/05 05:16:15;;;;;;;16.95;10.80;;;;;;;;;;5000480;28;20046;-62
2022/05/05 05:18:41;;;;;;;16.20;11.07;;;;;;;;;;4992717;28;20129;-62
2022/05/05 05:21:07;;;;;;;19.75;11.23;;;;;;;;;;5012098;28;20510;-62
2022/05/05 05:23:33;;;;;;;21.27;11.98;;;;;;;;;;5011818;28;20038;-62
2022/05/05 05:25:59;;;;;;;19.05;11.35;;;;;;;;;;5009271;28;20084;-62
2022/05/05 05:28:25;;;;;;;22.23;11.52;;;;;;;;;;5013071;28;20046;-62
2022/05/05 05:30:51;;;;;;;19.67;11.20;;;;;;;;;;5004694;28;20412;-62
2022/05/05 05:33:18;;;;;;;18.65;11.27;;;;;;;;;;5008027;28;20050;-62
2022/05/05 05:35:47;;;;;;;20.52;11.65;;;;;;;;;;5006963;28;20130;-62
2022/05/05 05:38:14;;;;;;;14.60;11.07;;;;;;;;;;5003551;28;20492;-62
2022/05/05 05:40:40;;;;;;;19.38;12.02;;;;;;;;;;5010402;28;20514;-63
2022/05/05 05:43:06;;;;;;;20.65;11.75;;;;;;;;;;5010411;28;20081;-62
2022/05/05 05:45:32;;;;;;;18.02;11.60;;;;;;;;;;5006376;28;20077;-62
2022/05/05 05:47:58;;;;;;;17.67;11.70;;;;;;;;;;4991698;28;20496;-62
2022/05/05 05:50:25;;;;;;;19.10;12.18;;;;;;;;;;5010111;28;20157;-62
2022/05/05 05:52:51;;;;;;;19.15;11.55;;;;;;;;;;5009568;28;20052;-62
2022/05/05 05:55:18;;;;;;;19.67;11.65;;;;;;;;;;5012051;28;20436;-62
2022/05/05 05:57:44;;;;;;;21.70;12.07;;;;;;;;;;5009080;28;20049;-62
2022/05/05 06:00:10;;;;;;;24.23;14.23;;;;;;;;;;5008974;28;20045;-62
2022/05/05 06:05:21;;;;;;;20.30;12.50;;;;;;;;;;5007408;28;20515;-59
2022/05/05 06:07:47;;;;;;;20.50;12.90;;;;;;;;;;4987788;28;20029;-60
2022/05/05 06:10:13;;;;;;;24.90;16.00;;;;;;;;;;5002121;28;20485;-59
2022/05/05 06:12:39;;;;;;;28.52;19.60;;;;;;;;;;5005408;28;20030;-59
2022/05/05 06:15:05;;;;;;;22.40;12.27;;;;;;;;;;5002396;28;20038;-60
2022/05/05 06:17:31;;;;;;;29.38;15.93;;;;;;;;;;5003285;28;20031;-59
2022/05/05 06:19:57;;;;;;;21.20;13.00;;;;;;;;;;5005936;28;20403;-60
2022/05/05 06:22:23;;;;;;;22.27;12.30;;;;;;;;;;5001818;28;20038;-60
2022/05/05 06:24:49;;;;;;;18.67;12.00;;;;;;;;;;5002567;28;20034;-60
2022/05/05 06:27:15;;;;;;;17.67;11.75;;;;;;;;;;5005808;28;20057;-60
2022/05/05 06:29:41;;;;;;;20.13;12.35;;;;;;;;;;5005507;28;20033;-60
2022/05/05 06:32:07;;;;;;;27.02;11.95;;;;;;;;;;5013091;28;20053;-59
2022/05/05 06:34:33;;;;;;;22.88;11.75;;;;;;;;;;5010668;28;20042;-60
2022/05/05 06:36:59;;;;;;;18.27;11.65;;;;;;;;;;5007111;28;20041;-59
2022/05/05 06:39:25;;;;;;;20.20;11.95;;;;;;;;;;5003014;28;20040;-60
2022/05/05 06:41:51;;;;;;;25.27;11.90;;;;;;;;;;4990453;28;20033;-60
2022/05/05 06:44:17;;;;;;;17.88;13.00;;;;;;;;;;5008986;28;20128;-59
2022/05/05 06:46:44;;;;;;;21.85;12.18;;;;;;;;;;5007135;28;20087;-59
2022/05/05 06:49:10;;;;;;;25.73;13.23;;;;;;;;;;5008224;28;20138;-59
2022/05/05 06:51:37;;;;;;;21.50;12.20;;;;;;;;;;5009851;28;20116;-60
2022/05/05 06:54:03;;;;;;;18.98;12.00;;;;;;;;;;5006049;28;20042;-60
2022/05/05 06:56:30;;;;;;;21.70;11.95;;;;;;;;;;5003249;28;20057;-59
2022/05/05 06:58:56;;;;;;;18.75;11.27;;;;;;;;;;5006415;28;20049;-59
2022/05/05 07:06:51;;;;;;;16.65;11.05;;;;;;;;;;5012153;28;20491;-60
2022/05/05 07:12:02;;;;;;;22.77;11.88;;;;;;;;;;5000835;28;20066;-60
2022/05/05 07:14:28;;;;;;;18.90;10.43;;;;;;;;;;5001339;28;20045;-60
2022/05/05 07:16:54;;;;;;;16.65;10.63;;;;;;;;;;5001960;28;20384;-60
2022/05/05 07:19:20;;;;;;;16.70;10.25;;;;;;;;;;5003039;28;20053;-60
2022/05/05 07:21:46;;;;;;;14.48;9.77;;;;;;;;;;5001780;28;20492;-60
2022/05/05 07:24:12;;;;;;;18.50;9.18;;;;;;;;;;5000581;28;20044;-60
2022/05/05 07:26:38;;;;;;;15.65;8.70;;;;;;;;;;5004092;28;20116;-59
2022/05/05 07:29:04;;;;;;;15.13;8.50;;;;;;;;;;5004949;28;20034;-60
2022/05/05 07:31:30;;;;;;;15.63;7.18;;;;;;;;;;5007199;28;20411;-60
2022/05/05 07:33:57;;;;;;;11.35;6.18;;;;;;;;;;5008067;28;20049;-60
2022/05/05 07:36:23;;;;;;;11.57;6.38;;;;;;;;;;5005037;28;20099;-60
2022/05/05 07:38:49;;;;;;;13.63;6.75;;;;;;;;;;5003354;28;20042;-60
2022/05/05 07:41:15;;;;;;;11.68;5.75;;;;;;;;;;5003261;28;20034;-60
2022/05/05 07:43:41;;;;;;;13.60;6.40;;;;;;;;;;5002632;28;20044;-60
2022/05/05 07:46:07;;;;;;;15.73;8.00;;;;;;;;;;5004373;28;20428;-60
2022/05/05 07:48:34;;;;;;;17.15;7.43;;;;;;;;;;5006358;28;20030;-60
2022/05/05 07:51:00;;;;;;;14.02;6.85;;;;;;;;;;5003610;28;20049;-60
2022/05/05 07:53:26;;;;;;;12.25;5.97;;;;;;;;;;5014275;28;20034;-60
2022/05/05 07:55:52;;;;;;;16.98;6.88;;;;;;;;;;5003755;28;20404;-60
2022/05/05 07:58:18;;;;;;;16.35;6.45;;;;;;;;;;5009533;28;20049;-60
2022/05/05 08:00:44;;;;;;;10.20;6.22;;;;;;;;;;5003771;28;20624;-60
2022/05/05 08:03:10;;;;;;;14.27;6.55;;;;;;;;;;5005842;28;20041;-60
2022/05/05 08:05:36;;;;;;;8.23;5.05;;;;;;;;;;5005840;28;20034;-60
2022/05/05 08:08:02;;;;;;;7.35;4.47;;;;;;;;;;5002130;28;20500;-60
2022/05/05 08:10:29;;;;;;;6.28;4.18;;;;;;;;;;5008193;28;20034;-60
2022/05/05 08:12:56;;;;;;;11.00;5.30;;;;;;;;;;5003796;28;20049;-60
2022/05/05 08:15:22;;;;;;;12.88;5.60;;;;;;;;;;5008756;28;20050;-60
2022/05/05 08:17:48;;;;;;;9.77;5.32;;;;;;;;;;5003995;28;20076;-60
2022/05/05 08:20:15;;;;;;;9.57;4.47;;;;;;;;;;5007904;28;20065;-60
2022/05/05 08:22:41;;;;;;;7.38;3.63;;;;;;;;;;5009371;28;20474;-60
2022/05/05 08:30:38;;;;;;;10.77;4.88;;;;;;;;;;5013255;28;20034;-59
2022/05/05 08:33:05;;;;;;;6.47;4.13;;;;;;;;;;5011489;28;20041;-59
2022/05/05 08:35:31;;;;;;;7.88;4.43;;;;;;;;;;5013540;28;20034;-59
2022/05/05 08:37:57;;;;;;;11.85;4.65;;;;;;;;;;5014039;28;20061;-59
2022/05/05 08:40:27;;;;;;;10.27;4.65;;;;;;;;;;5036413;23;20474;-58
2022/05/05 08:42:53;;;;;;;8.27;4.28;;;;;;;;;;5048768;28;20521;-59
2022/05/05 08:45:19;;;;;;;7.70;3.90;;;;;;;;;;5053279;28;20581;-58
2022/05/05 08:47:46;;;;;;;11.02;4.60;;;;;;;;;;5043576;28;20090;-58
2022/05/05 08:50:12;;;;;;;10.23;4.90;;;;;;;;;;5054419;28;20047;-58
2022/05/05 08:52:48;;;;;;;9.10;5.47;;;;;;;;;;5054567;28;20048;-59
2022/05/05 08:55:15;;;;;;;8.65;5.40;;;;;;;;;;5051001;28;20037;-58
2022/05/05 08:57:41;;;;;;;8.05;5.07;;;;;;;;;;5049430;28;20381;-58
2022/05/05 09:00:08;;;;;;;7.97;4.75;;;;;;;;;;5052330;28;20509;-58
2022/05/05 09:02:34;;;;;;;8.88;5.75;;;;;;;;;;5045124;28;20403;-58
2022/05/05 09:05:00;;;;;;;8.77;5.40;;;;;;;;;;5050815;28;20037;-58
2022/05/05 09:07:44;;;;;;;13.07;6.00;;;;;;;;;;5054101;28;20052;-58
2022/05/05 09:10:11;;;;;;;10.52;6.07;;;;;;;;;;5049973;28;20036;-59
2022/05/05 09:12:37;;;;;;;13.35;6.75;;;;;;;;;;5052485;28;20048;-58
2022/05/05 09:15:08;;;;;;;10.68;6.53;;;;;;;;;;5044576;28;20394;-58
2022/05/05 09:17:35;;;;;;;;;;;;;;;;;;5051245;28;20063;-59
2022/05/05 09:20:03;;;;;;;10.35;6.35;;;;;;;;;;5050746;28;19917;-59
2022/05/05 09:22:29;;;;;;;13.15;6.57;;;;;;;;;;5050403;28;20048;-59
2022/05/05 09:24:57;;;;;;;11.88;6.13;;;;;;;;;;5053671;28;20041;-59
2022/05/05 09:27:31;;;;;;;13.05;5.72;;;;;;;;;;5043101;28;20127;-59
2022/05/05 09:30:08;;;;;;;11.30;5.93;;;;;;;;;;5050478;28;20577;-59
2022/05/05 09:32:40;;;;;;;9.07;5.90;;;;;;;;;;5049853;28;20064;-58
2022/05/05 09:35:10;;;;;;;11.38;5.85;;;;;;;;;;5053816;28;20123;-58
2022/05/05 09:37:37;;;;;;;9.97;6.20;;;;;;;;;;5041933;28;20680;-58
2022/05/05 09:40:06;;;;;;;10.82;6.10;;;;;;;;;;5052705;28;20033;-59
2022/05/05 09:42:35;;;;;;;12.00;6.07;;;;;;;;;;5050240;28;20447;-59
2022/05/05 09:45:11;;;;;;;9.27;5.93;;;;;;;;;;5053816;28;20071;-59
2022/05/05 09:47:37;;;;;;;12.15;6.03;;;;;;;;;;5052916;28;20056;-59
2022/05/05 09:50:04;;;;;;;10.60;5.88;;;;;;;;;;5052058;28;20044;-59
2022/05/05 09:58:02;;;;;;;11.18;6.22;;;;;;;;;;5050454;28;20037;-58
2022/05/05 10:05:48;;;;;;;9.75;5.68;;;;;;;;;;5048422;28;20048;-59
2022/05/05 10:08:15;;;;;;;8.18;5.40;;;;;;;;;;5052444;28;20455;-59
2022/05/05 10:10:42;;;;;;;7.88;5.50;;;;;;;;;;5052342;28;20402;-59
2022/05/05 10:13:08;;;;;;;9.85;5.60;;;;;;;;;;5048770;28;20118;-59
2022/05/05 10:15:34;;;;;;;11.65;5.82;;;;;;;;;;5050318;28;20095;-59
2022/05/05 10:18:05;;;;;;;8.63;5.53;;;;;;;;;;5050716;28;20051;-59
2022/05/05 10:20:32;;;;;;;9.67;5.87;;;;;;;;;;5033343;28;20048;-59
2022/05/05 10:23:02;;;;;;;9.82;6.15;;;;;;;;;;5047566;28;20055;-59
2022/05/05 10:25:32;;;;;;;13.00;6.10;;;;;;;;;;5043571;28;20483;-59
2022/05/05 10:27:59;;;;;;;7.57;5.40;;;;;;;;;;5052247;28;20148;-59
2022/05/05 10:30:35;;;;;;;10.00;5.78;;;;;;;;;;5051151;28;20116;-59
2022/05/05 10:33:03;;;;;;;12.38;6.00;;;;;;;;;;5051336;28;20144;-59
2022/05/05 10:35:38;;;;;;;7.95;5.20;;;;;;;;;;5032094;28;20049;-59
2022/05/05 10:38:04;;;;;;;10.70;5.72;;;;;;;;;;5041321;28;20490;-59
2022/05/05 10:40:43;;;;;;;10.70;5.88;;;;;;;;;;5047058;28;20029;-59
2022/05/05 10:43:10;;;;;;;11.32;5.57;;;;;;;;;;5048675;28;20503;-59
2022/05/05 10:45:36;;;;;;;10.80;5.60;;;;;;;;;;5046823;28;20064;-59
2022/05/05 10:48:04;;;;;;;8.32;5.90;;;;;;;;;;5043420;28;20083;-59
2022/05/05 10:50:33;;;;;;;13.25;6.15;;;;;;;;;;5044837;28;20041;-59
2022/05/05 10:53:00;;;;;;;8.27;5.50;;;;;;;;;;5040343;28;20448;-59
2022/05/05 10:55:27;;;;;;;9.07;5.47;;;;;;;;;;5021209;28;20040;-59
2022/05/05 10:57:53;;;;;;;11.50;6.15;;;;;;;;;;5042098;28;20037;-60
2022/05/05 11:00:19;;;;;;;8.32;5.88;;;;;;;;;;5028426;28;20199;-59
2022/05/05 11:03:01;;;;;;;9.20;5.53;;;;;;;;;;5045249;28;20418;-59
2022/05/05 11:05:28;;;;;;;8.73;5.20;;;;;;;;;;5045128;28;20034;-59
2022/05/05 11:08:17;;;;;;;10.93;5.68;;;;;;;;;;5042877;28;20029;-59
2022/05/05 11:10:44;;;;;;;8.52;5.05;;;;;;;;;;5026946;28;20410;-59
2022/05/05 11:13:29;;;;;;;12.48;5.90;;;;;;;;;;5040072;28;20395;-59
2022/05/05 11:21:35;;;;;;;8.93;5.65;;;;;;;;;;5042439;28;20395;-59
2022/05/05 11:24:02;;;;;;;7.55;5.20;;;;;;;;;;5043711;28;20041;-59
2022/05/05 11:26:29;;;;;;;8.77;5.80;;;;;;;;;;5042055;28;20044;-59
2022/05/05 11:28:58;;;;;;;8.43;5.50;;;;;;;;;;5042237;28;20041;-59
2022/05/05 11:31:29;;;;;;;9.23;6.03;;;;;;;;;;5042976;28;20033;-59
2022/05/05 11:34:00;;;;;;;10.07;5.57;;;;;;;;;;5043474;28;20075;-59
2022/05/05 11:36:27;;;;;;;11.48;6.60;;;;;;;;;;5044923;28;20060;-59
2022/05/05 11:38:53;;;;;;;10.95;5.70;;;;;;;;;;5045760;28;20037;-59
2022/05/05 11:41:19;;;;;;;10.00;5.95;;;;;;;;;;5043392;28;20055;-59
2022/05/05 11:46:31;;;;;;;9.43;5.80;;;;;;;;;;5042217;28;20041;-59
2022/05/05 11:48:57;;;;;;;11.23;5.72;;;;;;;;;;5045184;28;20040;-59
2022/05/05 11:51:27;;;;;;;10.80;5.55;;;;;;;;;;5045095;28;20044;-59
2022/05/05 11:54:00;;;;;;;10.73;6.60;;;;;;;;;;5048328;28;20044;-59
2022/05/05 11:56:27;;;;;;;10.73;5.35;;;;;;;;;;5049902;28;20037;-59
2022/05/05 12:01:41;;;;;;;8.05;5.25;;;;;;;;;;5054015;28;20070;-59
2022/05/05 12:04:10;;;;;;;9.93;5.90;;;;;;;;;;5051046;28;20041;-59
2022/05/05 12:06:37;;;;;;;10.15;5.53;;;;;;;;;;5052627;28;20542;-59
2022/05/05 12:09:03;;;;;;;10.45;6.20;;;;;;;;;;5053724;28;20045;-59
2022/05/05 12:11:29;;;;;;;12.73;6.70;;;;;;;;;;5047131;28;20068;-59
2022/05/05 12:14:03;;;;;;;12.50;6.22;;;;;;;;;;5055456;28;20045;-59
2022/05/05 12:16:31;;;;;;;14.20;6.70;;;;;;;;;;5055089;28;20040;-59
2022/05/05 12:18:57;;;;;;;13.43;5.85;;;;;;;;;;5054087;28;20048;-59
2022/05/05 12:21:23;;;;;;;11.55;5.82;;;;;;;;;;5046999;28;20040;-59
2022/05/05 12:23:59;;;;;;;10.75;6.22;;;;;;;;;;5054283;28;20037;-59
2022/05/05 12:26:32;;;;;;;8.48;6.40;;;;;;;;;;5054766;28;20044;-59
2022/05/05 12:28:58;;;;;;;10.88;6.38;;;;;;;;;;5054506;28;20087;-59
2022/05/05 12:31:25;;;;;;;9.63;5.78;;;;;;;;;;5055135;28;20045;-59
2022/05/05 12:33:51;;;;;;;10.77;6.25;;;;;;;;;;5047773;28;20043;-59
2022/05/05 12:36:18;;;;;;;10.13;6.00;;;;;;;;;;5051347;28;20044;-59
2022/05/05 12:38:44;;;;;;;12.80;6.20;;;;;;;;;;5046375;28;20490;-59
2022/05/05 12:41:10;;;;;;;11.85;6.60;;;;;;;;;;5054460;28;20072;-59
2022/05/05 12:43:37;;;;;;;9.93;6.13;;;;;;;;;;5054183;28;20133;-59
2022/05/05 12:46:03;;;;;;;10.20;5.32;;;;;;;;;;5054731;28;20064;-59
2022/05/05 12:48:29;;;;;;;9.88;5.85;;;;;;;;;;5050283;28;20039;-59
2022/05/05 12:50:56;;;;;;;11.18;6.00;;;;;;;;;;5049344;28;20146;-59
2022/05/05 13:01:43;;;;;;;7.32;4.80;;;;;;;;;;5053822;28;20045;-59
2022/05/05 13:04:12;;;;;;;8.48;4.93;;;;;;;;;;5051187;28;20123;-59
2022/05/05 13:06:39;;;;;;;7.38;4.60;;;;;;;;;;5036105;28;20045;-59
2022/05/05 13:09:08;;;;;;;8.27;4.30;;;;;;;;;;5053363;28;20307;-59
2022/05/05 13:11:34;;;;;;;9.50;4.90;;;;;;;;;;5054107;28;20037;-59
2022/05/05 13:14:02;;;;;;;6.45;4.20;;;;;;;;;;5045534;28;20120;-59
2022/05/05 13:16:28;;;;;;;5.70;4.07;;;;;;;;;;5046211;28;20044;-59
2022/05/05 13:18:55;;;;;;;7.28;4.38;;;;;;;;;;5046164;28;20076;-59
2022/05/05 13:21:22;;;;;;;7.63;4.72;;;;;;;;;;5052681;28;20075;-59
2022/05/05 13:23:48;;;;;;;7.47;4.45;;;;;;;;;;5054187;28;20044;-59
2022/05/05 13:26:14;;;;;;;8.35;4.40;;;;;;;;;;5050328;28;20126;-59
2022/05/05 13:28:40;;;;;;;9.95;4.68;;;;;;;;;;5047262;28;20029;-59
2022/05/05 13:31:06;;;;;;;7.22;4.00;;;;;;;;;;5053697;28;20037;-59
2022/05/05 13:33:32;;;;;;;5.43;3.53;;;;;;;;;;5052981;28;20549;-59
2022/05/05 13:35:58;;;;;;;6.38;3.40;;;;;;;;;;5052988;28;20099;-59
2022/05/05 13:38:24;;;;;;;6.50;3.88;;;;;;;;;;5053754;28;20040;-59
2022/05/05 13:40:50;;;;;;;5.60;3.67;;;;;;;;;;5034995;28;20049;-59
2022/05/05 13:43:16;;;;;;;4.68;3.53;;;;;;;;;;5053177;28;20048;-59
2022/05/05 13:45:42;;;;;;;6.82;4.00;;;;;;;;;;5053263;28;20578;-59
2022/05/05 13:48:08;;;;;;;6.88;4.25;;;;;;;;;;5037536;28;20116;-59
2022/05/05 13:50:34;;;;;;;6.95;4.82;;;;;;;;;;5053420;28;20071;-59
2022/05/05 13:53:00;;;;;;;6.82;4.70;;;;;;;;;;5053404;28;20052;-59
2022/05/05 13:55:29;;;;;;;7.40;4.40;;;;;;;;;;5052477;28;20041;-59
2022/05/05 13:57:58;;;;;;;6.70;4.32;;;;;;;;;;5048510;28;20044;-59
2022/05/05 14:00:24;;;;;;;8.98;5.07;;;;;;;;;;5052897;28;20040;-59
2022/05/05 14:02:51;;;;;;;12.52;5.28;;;;;;;;;;5045518;28;20033;-59
2022/05/05 14:05:17;;;;;;;17.58;5.13;;;;;;;;;;5042235;28;20396;-59
2022/05/05 14:13:12;;;;;;;6.90;4.05;;;;;;;;;;5043753;28;20037;-59
2022/05/05 14:15:39;;;;;;;10.48;4.88;;;;;;;;;;5050340;28;20037;-59
2022/05/05 14:18:05;;;;;;;6.93;4.32;;;;;;;;;;5052888;28;20041;-59
2022/05/05 14:20:34;;;;;;;7.07;4.28;;;;;;;;;;5034270;28;20544;-59
2022/05/05 14:23:01;;;;;;;8.02;4.20;;;;;;;;;;5052609;28;20044;-59
2022/05/05 14:25:28;;;;;;;7.90;4.47;;;;;;;;;;5052591;28;20059;-59
2022/05/05 14:27:54;;;;;;;7.47;4.20;;;;;;;;;;5051582;28;20046;-59
2022/05/05 14:30:20;;;;;;;6.38;3.65;;;;;;;;;;5050501;28;20486;-59
2022/05/05 14:32:47;;;;;;;6.68;3.58;;;;;;;;;;5048503;28;20349;-59
2022/05/05 14:35:13;;;;;;;10.13;4.32;;;;;;;;;;5051088;28;20037;-59
2022/05/05 14:37:39;;;;;;;10.10;4.35;;;;;;;;;;5034574;28;20453;-59
2022/05/05 14:42:39;;;;;;;9.95;4.80;;;;;;;;;;5049627;28;20081;-60
2022/05/05 14:45:05;;;;;;;9.43;5.07;;;;;;;;;;5051044;28;20039;-60
2022/05/05 14:47:31;;;;;;;6.32;4.53;;;;;;;;;;5051230;28;20052;-61
2022/05/05 14:49:59;;;;;;;7.53;4.28;;;;;;;;;;5052245;28;20465;-60
2022/05/05 14:52:25;;;;;;;6.32;4.20;;;;;;;;;;5050570;28;20094;-60
2022/05/05 14:54:51;;;;;;;7.47;4.57;;;;;;;;;;5049259;28;20041;-60
2022/05/05 14:57:18;;;;;;;7.65;4.45;;;;;;;;;;5033486;28;20067;-60
2022/05/05 14:59:44;;;;;;;9.48;4.30;;;;;;;;;;5045261;28;20056;-60
2022/05/05 15:02:11;;;;;;;7.32;4.60;;;;;;;;;;5048510;28;20076;-60
2022/05/05 15:04:37;;;;;;;4.65;4.10;;;;;;;;;;5050176;28;20040;-60
2022/05/05 15:07:04;;;;;;;5.80;4.95;;;;;;;;;;5051478;28;20033;-60
2022/05/05 15:09:30;;;;;;;8.30;5.05;;;;;;;;;;5049976;28;20102;-60
2022/05/05 15:11:57;;;;;;;9.88;4.55;;;;;;;;;;5049762;28;20093;-60
2022/05/05 15:14:24;;;;;;;7.45;4.85;;;;;;;;;;5051093;28;20045;-60
2022/05/05 15:16:50;;;;;;;14.27;4.60;;;;;;;;;;5050168;28;20037;-60
2022/05/05 15:19:16;;;;;;;9.93;4.72;;;;;;;;;;5044215;28;20051;-60
2022/05/05 15:21:42;;;;;;;10.60;5.53;;;;;;;;;;5049483;28;20036;-60
2022/05/05 15:24:09;;;;;;;8.50;4.80;;;;;;;;;;5045209;28;20501;-60
2022/05/05 15:26:35;;;;;;;9.65;5.20;;;;;;;;;;5049590;28;20411;-60
2022/05/05 15:29:01;;;;;;;7.32;4.68;;;;;;;;;;5049213;28;20086;-60
2022/05/05 15:31:28;;;;;;;8.27;4.43;;;;;;;;;;5046297;28;20029;-60
2022/05/05 15:33:54;;;;;;;8.40;4.65;;;;;;;;;;5049524;28;20076;-60
2022/05/05 15:36:21;;;;;;;8.88;4.97;;;;;;;;;;5040888;28;20069;-61